WetterOnline ( https://www.wetteronline.de )

Wetter aktuell Isny

Aktuelles Wetter: Kempten (705m)

6-stündlich | Neueste Meldungen
Ortszeit Temperatur Wetter
Di, 18.06. 2:00 11.6° C wolkig
Mo, 17.06. 20:00 19.5° C wolkig
Mo, 17.06. 14:00 23.6° C wolkig
Mo, 17.06. 8:00 15.6° C bedeckt
Mo, 17.06. 2:00 12.8° C wolkig
So, 16.06. 20:00 20.2° C bewölkt
So, 16.06. 14:00 19.5° C leicht bewölkt
So, 16.06. 8:00 12.6° C bedeckt
Ortszeit Temperatur Wetter
Di, 18.06. 5:00 12.9° C wolkig
Di, 18.06. 4:50 12.9° C wolkig
Di, 18.06. 4:40 12.5° C bewölkt
Di, 18.06. 4:30 12.7° C bedeckt
Di, 18.06. 4:20 12.7° C bedeckt
Di, 18.06. 4:10 12.5° C bedeckt
Di, 18.06. 4:00 12.6° C bedeckt
Di, 18.06. 3:30 11.8° C bewölkt
Di, 18.06. 3:00 11.3° C wolkig
Di, 18.06. 2:30 11.3° C leicht bewölkt
Di, 18.06. 2:00 11.6° C wolkig
Ortszeit Relative Feuchte Sichtweite
Di, 18.06. 2:00 98% 19 km
Mo, 17.06. 20:00 69% 60 km
Mo, 17.06. 14:00 50% 55 km
Mo, 17.06. 8:00 78% 45 km
Mo, 17.06. 2:00 94% 30 km
So, 16.06. 20:00 49% 55 km
So, 16.06. 14:00 50% 40 km
So, 16.06. 8:00 91% 50 km
Ortszeit Relative Feuchte Sichtweite
Di, 18.06. 5:00 94% 40 km
Di, 18.06. 4:50 94% -
Di, 18.06. 4:40 95% -
Di, 18.06. 4:30 96% 40 km
Di, 18.06. 4:20 96% -
Di, 18.06. 4:10 96% -
Di, 18.06. 4:00 97% 21 km
Di, 18.06. 3:30 97% 30 km
Di, 18.06. 3:00 98% 10 km
Di, 18.06. 2:30 98% 18 km
Di, 18.06. 2:00 98% 19 km
Ortszeit Niederschlagsmenge Niederschlagsart
Di, 18.06. 2:00 4 l/m2 in 6 Std. Regen
Mo, 17.06. 20:00 0.1 l/m2 in 12 Std. Regen
Mo, 17.06. 14:00 0.0 l/m2 in 6 Std. -
Mo, 17.06. 8:00 0.1 l/m2 in 12 Std. -
Mo, 17.06. 2:00 0.1 l/m2 in 6 Std. Regen
So, 16.06. 20:00 0.1 l/m2 in 12 Std. -
So, 16.06. 14:00 0.1 l/m2 in 6 Std. Regen
So, 16.06. 8:00 1 l/m2 in 12 Std. Regen
Ortszeit Niederschlagsmenge Niederschlagsart
Di, 18.06. 5:00 0.0 l/m2 in 1 Std. -
Di, 18.06. 4:50 keine Meldung -
Di, 18.06. 4:40 keine Meldung -
Di, 18.06. 4:30 0.0 l/m2 in 30 Min -
Di, 18.06. 4:20 keine Meldung -
Di, 18.06. 4:10 keine Meldung -
Di, 18.06. 4:00 0.0 l/m2 in 1 Std. -
Di, 18.06. 3:30 0.0 l/m2 in 30 Min -
Di, 18.06. 3:00 <0.05 l/m2 in 1 Std. -
Di, 18.06. 2:30 0.0 l/m2 in 30 Min -
Di, 18.06. 2:00 0.0 l/m2 in 1 Std. Regen
Ortszeit Stärke Spitze Richtung
km/h Bft. km/h Grad Sektor
Di, 18.06. 2:00 11 2 29 100° O
Mo, 17.06. 20:00 9 2 31 340° N
Mo, 17.06. 14:00 7 2 19 340° N
Mo, 17.06. 8:00 7 2 14 140° SO
Mo, 17.06. 2:00 7 2 14 130° SO
So, 16.06. 20:00 7 2 32 280° W
So, 16.06. 14:00 7 2 18 90° O
So, 16.06. 8:00 6 1 15 150° SO
Ortszeit Stärke Spitze Richtung
km/h Bft. km/h Grad Sektor
Di, 18.06. 5:00 11 2 14 110° O
Di, 18.06. 4:50 11 2 - 110° O
Di, 18.06. 4:40 11 2 - 110° O
Di, 18.06. 4:30 9 2 13 100° O
Di, 18.06. 4:20 9 2 - 100° O
Di, 18.06. 4:10 11 2 - 110° O
Di, 18.06. 4:00 7 2 14 100° O
Di, 18.06. 3:30 7 2 13 150° SO
Di, 18.06. 3:00 9 2 13 110° O
Di, 18.06. 2:30 7 2 14 120° SO
Di, 18.06. 2:00 11 2 14 100° O
Ortszeit Untergrenze Bedeckung Gattung
total tief tief mittel hoch
Di, 18.06. 2:00 8100 m 8/8 0/8 - - -
Mo, 17.06. 20:00 1290 m 8/8 1/8 - - -
Mo, 17.06. 14:00 1500 m 6/8 2/8 - - -
Mo, 17.06. 8:00 3300 m 8/8 8/8 - - -
Mo, 17.06. 2:00 2400 m 7/8 2/8 - - -
So, 16.06. 20:00 2400 m 7/8 6/8 - - -
So, 16.06. 14:00 1380 m 8/8 1/8 - - -
So, 16.06. 8:00 1260 m 8/8 8/8 - - -
Ortszeit Bedeckungsgrad in Achtel und Wolkenuntergrenze
Di, 18.06. 5:00 3(2700m) 7(10500m)
Di, 18.06. 4:50 3(2700m) 7(10500m)
Di, 18.06. 4:40 7
Di, 18.06. 4:30 7(3000m) 8(6000m) 8(6900m)
Di, 18.06. 4:20 7(3000m) 8(6000m) 8(6900m)
Di, 18.06. 4:10 8
Di, 18.06. 4:00 6(3600m) 8(6600m)
Di, 18.06. 3:30 7(3900m) 8(9000m)
Di, 18.06. 3:00 3(3900m) 6(9000m) 7(10500m)
Di, 18.06. 2:30 5(10500m)
Di, 18.06. 2:00 2(8100m) 8(9000m)
Ortszeit Luftdruck NN (hPa) Tendenz (hPa in 3 Std.)
Di, 18.06. 2:00 1018 - 0,1
Mo, 17.06. 20:00 1015 + 0,9
Mo, 17.06. 14:00 1012 - 0,4
Mo, 17.06. 8:00 1015 + 0,5
Mo, 17.06. 2:00 1014 + 0,3
So, 16.06. 20:00 1010 + 1,0
So, 16.06. 14:00 1010 - 0,8
So, 16.06. 8:00 1013 + 0,2
Ortszeit Luftdruck NN (hPa) Tendenz (hPa in 3 Std.)
Di, 18.06. 5:00 1017 - 0,5
Di, 18.06. 4:50 1017 keine Meldung
Di, 18.06. 4:40 1017 keine Meldung
Di, 18.06. 4:30 1017 - 0,5
Di, 18.06. 4:20 1017 keine Meldung
Di, 18.06. 4:10 1017 keine Meldung
Di, 18.06. 4:00 1017 - 0,4
Di, 18.06. 3:30 1018 - 0,2
Di, 18.06. 3:00 1018 0,0
Di, 18.06. 2:30 1018 + 0,1
Di, 18.06. 2:00 1018 - 0,1
Ortszeit Schneehöhe (cm)
Di, 18.06. 2:00 0
Mo, 17.06. 20:00 0
Mo, 17.06. 14:00 0
Mo, 17.06. 8:00 0
Mo, 17.06. 2:00 0
So, 16.06. 20:00 0
So, 16.06. 14:00 0
So, 16.06. 8:00 0
Ortszeit Schneehöhe (cm)
Di, 18.06. 5:00 0
Di, 18.06. 4:50 0
Di, 18.06. 4:40 -
Di, 18.06. 4:30 0
Di, 18.06. 4:20 0
Di, 18.06. 4:10 -
Di, 18.06. 4:00 0
Di, 18.06. 3:30 -
Di, 18.06. 3:00 0
Di, 18.06. 2:30 0
Di, 18.06. 2:00 0
Link zu dieser Seite / Seite empfehlen

Das Wetter in ...